Pocatello Regional Airport
KPIH : now visible

Airfield :











YOU CAN JOIN US ON...

 
LOGIN :

Register | Disclaimer

   EN    FR    IT 

 









Legend :    VFR   Marginal VFR   IFR   Intensive IFR   Very Intensive IFR
Visi :
Ceiling :
>= 8 km
>= 3000ft
5 to 8 km
1000 to 3000 ft
1500m to 5 km
500 to 1000 ft
800 to 1500m
200 to 500 ft
< 800m
< 200 ft
Symbols :   Thunderstorms  Fog  Heavy snow  Heavy precipitations  Wind > 20 kt






- Airport Elevation : 4452 ft
- IATA code : PIH


KPIH - Pocatello Regional

CURRENT METAR :
  • 172153Z 26017KT 10SM SCT031 BKN049 BKN065 02/M07 A3010 RMK AO2 SNE20 SLP215 P0001 T00171072

EXPIRED METARs :
  • 172053Z 27012KT 10SM -SN BKN032 BKN045 00/M08 A3011 RMK AO2 SNB52 SLP222 P0000 60000 T00001083 58006
  • 171953Z 24013KT 10SM SCT030 BKN080 01/M08 A3012 RMK AO2 SLP222 T00111078

TAF KPIH
Valid from the 17 at 18:00 until the 18 at 18:00 UTC


171720Z 1718/1818 24011KT P6SM FEW030 BKN120
FM172100 24010KT P6SM VCSH SCT020 BKN040
FM180200 22008KT P6SM SCT040 SCT250



MET'MAP, your aeronautical weather chart ! - Copyright ORBIFLY December 2007 - Disclaimer

ORBIFLY MET'MAP TEAM :

Programming & Development : Alexandra Zaïnal
Concept & original design : Baudouin d'Aumeries
Assistance for programming : Marc-Olivier Méhu
Technical & hardware support : Manuel Goepfert

Contact : metmap@orbifly.com




SOURCES & CREDITS :

   NOAA       Earth
Advisory